createdAt,value
2023-04-08T00:01:34.097Z,86.70
2023-04-08T00:04:00.949Z,86.70
2023-04-08T00:06:28.106Z,86.70
2023-04-08T00:08:54.876Z,86.70
2023-04-08T00:11:31.099Z,86.80
2023-04-08T00:13:57.860Z,86.80
2023-04-08T00:16:24.676Z,85.90
2023-04-08T00:18:52.262Z,85.90
2023-04-08T00:21:20.934Z,87.00
2023-04-08T00:23:47.900Z,86.10
2023-04-08T00:26:26.237Z,86.10
2023-04-08T00:28:53.004Z,86.10
2023-04-08T00:31:19.886Z,86.20
2023-04-08T00:33:50.397Z,86.20
2023-04-08T00:36:17.700Z,86.30
2023-04-08T00:38:47.061Z,87.20
2023-04-08T00:41:13.942Z,86.40
2023-04-08T00:43:41.040Z,86.40
2023-04-08T00:46:07.978Z,86.50
2023-04-08T00:48:34.825Z,86.50
2023-04-08T00:51:02.164Z,86.60
2023-04-08T00:53:31.364Z,86.70
2023-04-08T00:55:59.984Z,86.70
2023-04-08T00:58:27.093Z,86.70
2023-04-08T01:01:15.745Z,86.80
2023-04-08T01:04:15.416Z,86.60
2023-04-08T01:06:54.986Z,86.50
2023-04-08T01:09:25.361Z,86.80
2023-04-08T01:11:53.808Z,86.90
2023-04-08T01:14:23.873Z,86.90
2023-04-08T01:16:50.860Z,86.90
2023-04-08T01:19:34.505Z,87.90
2023-04-08T01:22:19.842Z,87.90
2023-04-08T01:24:49.278Z,87.90
2023-04-08T01:27:17.563Z,88.10
2023-04-08T01:29:45.730Z,88.20
2023-04-08T01:32:13.697Z,88.20
2023-04-08T01:34:41.740Z,88.10
2023-04-08T01:37:08.800Z,88.20
2023-04-08T01:39:36.857Z,88.20
2023-04-08T01:42:04.705Z,88.20
2023-04-08T01:44:33.555Z,88.30
2023-04-08T01:47:03.935Z,88.40
2023-04-08T01:49:33.428Z,88.40
2023-04-08T01:52:01.588Z,88.40
2023-04-08T01:54:28.396Z,88.30
2023-04-08T01:56:59.678Z,88.30
2023-04-08T01:59:29.801Z,88.40
2023-04-08T02:01:57.419Z,88.40
2023-04-08T02:04:24.318Z,88.30
2023-04-08T02:06:51.218Z,88.40
2023-04-08T02:09:17.953Z,88.40
2023-04-08T02:11:47.036Z,88.50
2023-04-08T02:14:13.963Z,88.50
2023-04-08T02:16:49.265Z,88.50
2023-04-08T02:19:22.814Z,88.70
2023-04-08T02:21:58.491Z,88.70
2023-04-08T02:24:27.128Z,88.70
2023-04-08T02:26:56.617Z,88.70
2023-04-08T02:29:24.572Z,88.70
2023-04-08T02:31:52.835Z,88.70
2023-04-08T02:34:22.234Z,88.80
2023-04-08T02:36:51.081Z,88.80
2023-04-08T02:39:18.107Z,88.70
2023-04-08T02:41:44.790Z,88.70
2023-04-08T02:44:11.483Z,88.60
2023-04-08T02:46:38.295Z,88.70
2023-04-08T02:49:05.671Z,88.70
2023-04-08T02:51:33.273Z,88.80
2023-04-08T02:54:00.004Z,88.80
2023-04-08T02:56:26.821Z,88.80
2023-04-08T02:58:53.636Z,88.70
2023-04-08T03:01:20.640Z,88.70
2023-04-08T03:03:47.403Z,88.70
2023-04-08T03:06:17.234Z,88.70
2023-04-08T03:08:44.406Z,88.70
2023-04-08T03:11:11.367Z,88.70
2023-04-08T03:13:38.090Z,88.70
2023-04-08T03:16:05.182Z,88.80
2023-04-08T03:18:31.892Z,88.70
2023-04-08T03:20:58.610Z,88.70
2023-04-08T03:23:25.403Z,88.70
2023-04-08T03:25:52.089Z,88.60
2023-04-08T03:28:18.831Z,88.60
2023-04-08T03:30:45.879Z,88.70
2023-04-08T03:33:15.814Z,88.70
2023-04-08T03:35:42.591Z,88.80
2023-04-08T03:38:09.374Z,88.80
2023-04-08T03:40:39.106Z,88.80
2023-04-08T03:43:08.749Z,88.80
2023-04-08T03:45:38.414Z,88.80
2023-04-08T03:48:05.477Z,88.90
2023-04-08T03:50:32.257Z,88.90
2023-04-08T03:52:58.984Z,88.90
2023-04-08T03:55:28.408Z,88.90
2023-04-08T03:57:55.701Z,88.90
2023-04-08T04:00:22.655Z,89.00
2023-04-08T04:02:50.093Z,89.00
2023-04-08T04:05:16.874Z,89.00
2023-04-08T04:07:43.652Z,89.00
2023-04-08T04:10:11.022Z,89.00
2023-04-08T04:12:37.764Z,89.00
2023-04-08T04:15:05.084Z,89.10
2023-04-08T04:17:31.857Z,89.00
2023-04-08T04:19:58.574Z,89.10
2023-04-08T04:22:25.329Z,89.10
2023-04-08T04:24:52.043Z,89.10
2023-04-08T04:27:18.718Z,89.10
2023-04-08T04:29:45.631Z,89.10
2023-04-08T04:32:12.336Z,89.20
2023-04-08T04:34:39.097Z,89.20
2023-04-08T04:37:06.309Z,89.20
2023-04-08T04:39:33.021Z,89.20
2023-04-08T04:42:01.800Z,89.30
2023-04-08T04:44:28.563Z,89.30
2023-04-08T04:46:55.347Z,89.30
2023-04-08T04:49:22.137Z,89.40
2023-04-08T04:51:49.312Z,89.50
2023-04-08T04:54:16.119Z,89.50
2023-04-08T04:56:42.845Z,89.50
2023-04-08T04:59:09.923Z,89.50
2023-04-08T05:01:36.782Z,89.30
2023-04-08T05:04:03.698Z,89.30
2023-04-08T05:06:30.980Z,89.30
2023-04-08T05:08:57.675Z,89.40
2023-04-08T05:11:24.520Z,89.30
2023-04-08T05:13:51.402Z,89.30
2023-04-08T05:16:18.297Z,89.30
2023-04-08T05:18:45.269Z,89.40
2023-04-08T05:21:12.012Z,89.50
2023-04-08T05:23:38.780Z,89.50
2023-04-08T05:26:08.863Z,89.50
2023-04-08T05:28:36.046Z,89.70
2023-04-08T05:31:02.777Z,89.50
2023-04-08T05:33:32.780Z,89.60
2023-04-08T05:35:59.808Z,89.70
2023-04-08T05:38:26.597Z,89.70
2023-04-08T05:40:53.398Z,89.70
2023-04-08T05:43:20.192Z,89.80
2023-04-08T05:45:46.919Z,89.90
2023-04-08T05:48:16.726Z,89.90
2023-04-08T05:50:43.481Z,90.00
2023-04-08T05:53:10.845Z,90.00
2023-04-08T05:55:37.531Z,89.90
2023-04-08T05:58:04.250Z,90.00
2023-04-08T06:00:31.414Z,89.90
2023-04-08T06:03:01.443Z,89.80
2023-04-08T06:05:28.637Z,89.80
2023-04-08T06:07:55.626Z,89.80
2023-04-08T06:10:22.313Z,89.80
2023-04-08T06:12:51.254Z,89.70
2023-04-08T06:15:18.510Z,89.60
2023-04-08T06:17:45.211Z,89.60
2023-04-08T06:20:17.110Z,89.60
2023-04-08T06:22:43.917Z,89.70
2023-04-08T06:25:10.668Z,89.70
2023-04-08T06:27:40.680Z,89.70
2023-04-08T06:30:08.158Z,89.80
2023-04-08T06:32:34.852Z,89.80
2023-04-08T06:35:01.800Z,89.80
2023-04-08T06:37:28.608Z,89.90
2023-04-08T06:39:55.488Z,90.00
2023-04-08T06:42:23.164Z,90.00
2023-04-08T06:44:50.058Z,90.00
2023-04-08T06:47:17.364Z,90.00
2023-04-08T06:49:44.069Z,90.10
2023-04-08T06:52:11.774Z,90.10
2023-04-08T06:54:39.918Z,90.10
2023-04-08T06:57:07.091Z,90.10
2023-04-08T06:59:33.962Z,90.00
2023-04-08T07:02:01.435Z,90.00
2023-04-08T07:04:28.379Z,90.10
2023-04-08T07:06:55.047Z,90.10
2023-04-08T07:09:21.846Z,90.10
2023-04-08T07:11:48.846Z,90.00
2023-04-08T07:14:15.940Z,90.10
2023-04-08T07:16:42.873Z,90.10
2023-04-08T07:19:12.085Z,90.10
2023-04-08T07:21:39.242Z,90.10
2023-04-08T07:24:06.254Z,90.00
2023-04-08T07:26:35.335Z,90.10
2023-04-08T07:29:02.212Z,90.10
2023-04-08T07:31:29.069Z,90.10
2023-04-08T07:33:56.093Z,90.00
2023-04-08T07:36:22.815Z,90.10
2023-04-08T07:38:52.544Z,90.00
2023-04-08T07:41:19.486Z,90.10
2023-04-08T07:43:49.178Z,90.10
2023-04-08T07:46:16.124Z,90.10
2023-04-08T07:48:42.966Z,90.00
2023-04-08T07:51:11.392Z,90.00
2023-04-08T07:53:39.539Z,90.00
2023-04-08T07:56:18.265Z,90.00
2023-04-08T07:58:47.014Z,90.00
2023-04-08T08:01:19.022Z,90.00
2023-04-08T08:03:47.655Z,90.00
2023-04-08T08:06:15.339Z,90.00
2023-04-08T08:08:42.310Z,89.90
2023-04-08T08:11:09.452Z,89.90
2023-04-08T08:13:38.540Z,89.90
2023-04-08T08:16:09.173Z,89.80
2023-04-08T08:18:36.909Z,89.70
2023-04-08T08:21:04.153Z,89.90
2023-04-08T08:23:30.939Z,89.70
2023-04-08T08:26:06.421Z,89.40
2023-04-08T08:28:33.667Z,89.70
2023-04-08T08:31:01.846Z,89.70
2023-04-08T08:33:28.549Z,89.80
2023-04-08T08:35:56.088Z,89.80
2023-04-08T08:38:22.978Z,89.70
2023-04-08T08:40:57.531Z,88.50
2023-04-08T08:43:29.137Z,88.20
2023-04-08T08:45:55.846Z,88.40
2023-04-08T08:48:24.746Z,88.50
2023-04-08T08:50:51.638Z,88.50
2023-04-08T08:53:19.744Z,88.50
2023-04-08T08:56:13.710Z,88.40
2023-04-08T08:58:33.478Z,88.30
2023-04-08T09:01:00.476Z,88.00
2023-04-08T09:03:28.763Z,88.00
2023-04-08T09:06:01.107Z,87.80
2023-04-08T09:08:35.590Z,87.80
2023-04-08T09:11:22.359Z,87.80
2023-04-08T09:13:49.610Z,87.80
2023-04-08T09:16:18.725Z,88.60
2023-04-08T09:18:48.641Z,87.80
2023-04-08T09:21:19.620Z,87.80
2023-04-08T09:23:53.051Z,87.50
2023-04-08T09:26:24.629Z,87.60
2023-04-08T09:29:24.405Z,87.70
2023-04-08T09:31:59.935Z,87.60
2023-04-08T09:34:29.736Z,87.50
2023-04-08T09:36:56.989Z,87.40
2023-04-08T09:39:24.272Z,87.10
2023-04-08T09:41:53.001Z,86.80
2023-04-08T09:44:21.764Z,87.10
2023-04-08T09:46:51.762Z,87.10
2023-04-08T09:49:27.902Z,87.00
2023-04-08T09:52:33.409Z,87.30
2023-04-08T09:55:02.149Z,87.30
2023-04-08T09:57:43.538Z,87.10
2023-04-08T10:00:15.512Z,86.80
2023-04-08T10:03:14.995Z,86.40
2023-04-08T10:05:43.709Z,86.20
2023-04-08T10:08:10.730Z,86.00
2023-04-08T10:10:40.759Z,85.80
2023-04-08T10:13:08.199Z,86.00
2023-04-08T10:15:37.587Z,85.30
2023-04-08T10:18:04.812Z,85.60
2023-04-08T10:20:38.419Z,85.20
2023-04-08T10:23:13.872Z,84.80
2023-04-08T10:25:50.107Z,84.30
2023-04-08T10:28:22.609Z,84.50
2023-04-08T10:30:52.601Z,84.60
2023-04-08T10:33:21.973Z,84.70
2023-04-08T10:36:12.557Z,84.70
2023-04-08T10:38:39.693Z,85.00
2023-04-08T10:41:06.432Z,83.40
2023-04-08T10:43:36.858Z,82.70
2023-04-08T10:46:04.962Z,82.60
2023-04-08T10:48:31.948Z,82.10
2023-04-08T10:51:02.487Z,81.60
2023-04-08T10:53:31.278Z,81.00
2023-04-08T10:56:18.315Z,80.20
2023-04-08T10:58:59.130Z,80.60
2023-04-08T11:01:26.564Z,79.60
2023-04-08T11:03:53.879Z,79.90
2023-04-08T11:06:20.924Z,79.50
2023-04-08T11:08:47.757Z,79.20
2023-04-08T11:11:15.437Z,78.60
2023-04-08T11:13:52.914Z,78.10
2023-04-08T11:16:22.751Z,77.10
2023-04-08T11:18:51.230Z,77.10
2023-04-08T11:21:18.226Z,76.40
2023-04-08T11:23:45.270Z,76.00
2023-04-08T11:26:12.307Z,75.80
2023-04-08T11:28:39.221Z,75.50
2023-04-08T11:31:09.240Z,75.60
2023-04-08T11:33:36.357Z,74.90
2023-04-08T11:36:08.560Z,74.80
2023-04-08T11:38:40.701Z,73.90
2023-04-08T11:41:07.610Z,73.40
2023-04-08T11:43:36.587Z,73.40
2023-04-08T11:46:13.109Z,72.80
2023-04-08T11:48:40.037Z,72.70
2023-04-08T11:51:09.282Z,72.50
2023-04-08T11:53:37.853Z,71.70
2023-04-08T11:56:22.322Z,71.60
2023-04-08T11:58:50.025Z,71.60
2023-04-08T12:01:16.790Z,72.10
2023-04-08T12:04:04.003Z,70.40
2023-04-08T12:06:31.731Z,70.70
2023-04-08T12:08:59.773Z,70.10
2023-04-08T12:11:26.813Z,69.00
2023-04-08T12:13:53.777Z,68.90
2023-04-08T12:16:21.301Z,68.60
2023-04-08T12:18:48.395Z,68.30
2023-04-08T12:21:15.450Z,68.20
2023-04-08T12:23:42.447Z,67.80
2023-04-08T12:26:09.790Z,67.20
2023-04-08T12:28:36.647Z,66.30
2023-04-08T12:31:04.202Z,66.10
2023-04-08T12:33:31.447Z,65.80
2023-04-08T12:35:59.308Z,65.60
2023-04-08T12:38:27.102Z,65.30
2023-04-08T12:40:54.698Z,65.00
2023-04-08T12:43:22.105Z,64.50
2023-04-08T12:45:49.081Z,63.80
2023-04-08T12:48:15.981Z,63.40
2023-04-08T12:50:42.796Z,62.80
2023-04-08T12:53:09.649Z,62.50
2023-04-08T12:55:36.444Z,62.60
2023-04-08T12:58:03.184Z,62.10
2023-04-08T13:00:30.191Z,61.70
2023-04-08T13:02:57.098Z,61.40
2023-04-08T13:05:39.619Z,60.30
2023-04-08T13:08:09.982Z,59.90
2023-04-08T13:10:36.710Z,59.80
2023-04-08T13:13:03.627Z,59.80
2023-04-08T13:15:30.554Z,59.80
2023-04-08T13:17:57.288Z,59.90
2023-04-08T13:20:26.028Z,59.90
2023-04-08T13:22:53.357Z,59.30
2023-04-08T13:25:20.493Z,59.10
2023-04-08T13:27:47.326Z,58.90
2023-04-08T13:30:20.853Z,58.60
2023-04-08T13:32:47.899Z,58.00
2023-04-08T13:35:17.488Z,58.00
2023-04-08T13:37:44.272Z,57.40
2023-04-08T13:40:12.197Z,57.50
2023-04-08T13:42:39.219Z,57.20
2023-04-08T13:45:06.642Z,56.90
2023-04-08T13:47:34.271Z,56.80
2023-04-08T13:50:02.772Z,56.80
2023-04-08T13:52:29.462Z,56.80
2023-04-08T13:54:56.416Z,56.90
2023-04-08T13:57:23.247Z,56.90
2023-04-08T13:59:49.968Z,56.70
2023-04-08T14:02:16.966Z,56.50
2023-04-08T14:04:45.933Z,56.30
2023-04-08T14:07:16.978Z,55.90
2023-04-08T14:09:52.785Z,55.50
2023-04-08T14:12:19.496Z,55.60
2023-04-08T14:14:46.293Z,55.80
2023-04-08T14:17:13.093Z,55.30
2023-04-08T14:19:39.996Z,54.30
2023-04-08T14:22:06.972Z,54.90
2023-04-08T14:24:39.908Z,54.80
2023-04-08T14:27:06.662Z,54.10
2023-04-08T14:29:33.334Z,54.20
2023-04-08T14:32:00.455Z,54.00
2023-04-08T14:34:27.702Z,53.50
2023-04-08T14:36:54.447Z,53.30
2023-04-08T14:39:21.717Z,53.20
2023-04-08T14:41:48.444Z,52.70
2023-04-08T14:44:15.292Z,52.80
2023-04-08T14:46:42.216Z,52.70
2023-04-08T14:49:08.950Z,52.70
2023-04-08T14:51:37.824Z,52.20
2023-04-08T14:54:04.702Z,52.40
2023-04-08T14:56:31.544Z,52.30
2023-04-08T14:58:58.808Z,52.30
2023-04-08T15:01:25.567Z,52.20
2023-04-08T15:03:52.340Z,52.50
2023-04-08T15:06:21.703Z,52.50
2023-04-08T15:08:51.313Z,52.60
2023-04-08T15:11:20.915Z,53.00
2023-04-08T15:13:48.651Z,52.00
2023-04-08T15:16:18.809Z,52.00
2023-04-08T15:18:45.614Z,51.90
2023-04-08T15:21:12.551Z,52.30
2023-04-08T15:23:42.091Z,52.20
2023-04-08T15:26:10.022Z,52.60
2023-04-08T15:28:38.110Z,52.20
2023-04-08T15:31:07.713Z,51.80
2023-04-08T15:33:35.034Z,51.50
2023-04-08T15:36:04.488Z,51.60
2023-04-08T15:38:33.516Z,51.50
2023-04-08T15:41:01.379Z,51.90
2023-04-08T15:43:31.477Z,52.00
2023-04-08T15:45:58.376Z,52.20
2023-04-08T15:48:28.262Z,52.10
2023-04-08T15:50:57.835Z,52.10
2023-04-08T15:53:24.756Z,52.00
2023-04-08T15:55:51.652Z,52.10
2023-04-08T15:58:18.460Z,52.10
2023-04-08T16:00:45.266Z,52.10
2023-04-08T16:03:12.902Z,52.60
2023-04-08T16:05:41.572Z,52.60
2023-04-08T16:08:08.709Z,52.70
2023-04-08T16:10:35.518Z,52.50
2023-04-08T16:13:02.918Z,52.40
2023-04-08T16:15:29.657Z,52.30
2023-04-08T16:17:56.467Z,52.20
2023-04-08T16:20:23.195Z,52.10
2023-04-08T16:22:50.438Z,52.20
2023-04-08T16:25:17.480Z,52.10
2023-04-08T16:27:44.276Z,52.20
2023-04-08T16:30:11.485Z,52.20
2023-04-08T16:32:38.246Z,52.50
2023-04-08T16:35:05.595Z,52.30
2023-04-08T16:37:33.403Z,52.70
2023-04-08T16:40:00.815Z,52.90
2023-04-08T16:42:27.594Z,53.30
2023-04-08T16:44:58.044Z,53.40
2023-04-08T16:47:25.691Z,53.30
2023-04-08T16:49:53.062Z,53.60
2023-04-08T16:52:21.081Z,53.80
2023-04-08T16:54:48.225Z,53.90
2023-04-08T16:57:15.066Z,54.00
2023-04-08T16:59:42.302Z,54.00
2023-04-08T17:02:09.383Z,54.10
2023-04-08T17:04:36.193Z,54.30
2023-04-08T17:07:03.392Z,54.40
2023-04-08T17:09:31.245Z,54.40
2023-04-08T17:11:58.112Z,54.30
2023-04-08T17:14:24.942Z,54.40
2023-04-08T17:16:51.836Z,54.50
2023-04-08T17:19:18.811Z,54.70
2023-04-08T17:21:46.256Z,54.80
2023-04-08T17:24:14.221Z,54.90
2023-04-08T17:26:44.908Z,55.00
2023-04-08T17:29:12.275Z,55.20
2023-04-08T17:31:42.145Z,55.40
2023-04-08T17:34:09.077Z,55.50
2023-04-08T17:36:35.911Z,55.70
2023-04-08T17:39:02.662Z,55.70
2023-04-08T17:41:38.840Z,55.90
2023-04-08T17:44:06.955Z,56.10
2023-04-08T17:46:33.773Z,56.20
2023-04-08T17:49:00.571Z,56.30
2023-04-08T17:51:27.962Z,56.40
2023-04-08T17:53:54.989Z,56.60
2023-04-08T17:56:24.375Z,56.60
2023-04-08T17:58:51.610Z,56.70
2023-04-08T18:01:22.636Z,56.90
2023-04-08T18:03:53.226Z,56.90
2023-04-08T18:06:20.309Z,57.10
2023-04-08T18:08:46.996Z,57.20
2023-04-08T18:11:13.973Z,57.30
2023-04-08T18:13:40.782Z,57.40
2023-04-08T18:16:16.627Z,57.50
2023-04-08T18:18:43.382Z,57.80
2023-04-08T18:21:10.359Z,57.80
2023-04-08T18:23:37.671Z,57.90
2023-04-08T18:26:04.567Z,58.10
2023-04-08T18:28:31.547Z,58.30
2023-04-08T18:30:58.391Z,58.30
2023-04-08T18:33:25.491Z,58.50
2023-04-08T18:35:52.775Z,58.60
2023-04-08T18:38:19.652Z,58.80
2023-04-08T18:40:46.763Z,59.00
2023-04-08T18:43:16.072Z,59.10
2023-04-08T18:45:42.946Z,59.20
2023-04-08T18:48:09.820Z,59.30
2023-04-08T18:50:36.934Z,59.50
2023-04-08T18:53:03.672Z,59.60
2023-04-08T18:55:32.808Z,59.70
2023-04-08T18:57:59.508Z,59.80
2023-04-08T19:00:29.056Z,60.00
2023-04-08T19:02:56.879Z,60.10
2023-04-08T19:05:23.801Z,60.10
2023-04-08T19:07:50.587Z,60.20
2023-04-08T19:10:17.383Z,60.50
2023-04-08T19:12:44.169Z,60.50
2023-04-08T19:15:11.330Z,60.60
2023-04-08T19:17:38.057Z,60.70
2023-04-08T19:20:08.415Z,60.90
2023-04-08T19:22:35.118Z,61.00
2023-04-08T19:25:01.875Z,61.20
2023-04-08T19:27:28.660Z,61.40
2023-04-08T19:29:55.367Z,61.50
2023-04-08T19:32:25.166Z,61.70
2023-04-08T19:34:52.153Z,61.80
2023-04-08T19:37:19.049Z,62.00
2023-04-08T19:39:46.245Z,62.00
2023-04-08T19:42:13.555Z,62.90
2023-04-08T19:44:40.301Z,62.10
2023-04-08T19:47:06.975Z,62.30
2023-04-08T19:49:36.545Z,62.40
2023-04-08T19:52:03.338Z,62.60
2023-04-08T19:54:30.221Z,62.60
2023-04-08T19:56:58.539Z,62.70
2023-04-08T19:59:25.913Z,62.90
2023-04-08T20:01:52.739Z,63.00
2023-04-08T20:04:19.559Z,62.90
2023-04-08T20:06:50.479Z,63.10
2023-04-08T20:09:17.153Z,63.30
2023-04-08T20:11:43.879Z,63.20
2023-04-08T20:14:10.947Z,63.50
2023-04-08T20:16:37.694Z,63.60
2023-04-08T20:19:04.395Z,63.70
2023-04-08T20:21:33.231Z,63.80
2023-04-08T20:23:59.941Z,64.00
2023-04-08T20:26:26.760Z,64.10
2023-04-08T20:28:56.277Z,64.10
2023-04-08T20:31:24.738Z,64.30
2023-04-08T20:33:51.536Z,64.50
2023-04-08T20:36:18.268Z,64.50
2023-04-08T20:38:45.109Z,64.70
2023-04-08T20:41:12.055Z,64.90
2023-04-08T20:43:39.554Z,65.10
2023-04-08T20:46:06.491Z,65.20
2023-04-08T20:48:33.326Z,65.30
2023-04-08T20:51:00.218Z,65.30
2023-04-08T20:53:27.402Z,65.50
2023-04-08T20:55:54.259Z,65.60
2023-04-08T20:58:21.621Z,65.80
2023-04-08T21:00:48.515Z,65.90
2023-04-08T21:03:15.473Z,66.00
2023-04-08T21:05:42.443Z,66.20
2023-04-08T21:08:09.589Z,66.20
2023-04-08T21:10:36.330Z,66.40
2023-04-08T21:13:03.084Z,66.50
2023-04-08T21:15:30.059Z,66.60
2023-04-08T21:17:56.852Z,66.80
2023-04-08T21:20:34.562Z,66.80
2023-04-08T21:23:04.968Z,66.80
2023-04-08T21:25:32.235Z,66.90
2023-04-08T21:27:59.137Z,66.90
2023-04-08T21:30:25.946Z,67.00
2023-04-08T21:32:52.783Z,67.00
2023-04-08T21:35:19.695Z,67.20
2023-04-08T21:37:49.333Z,67.30
2023-04-08T21:40:16.250Z,67.50
2023-04-08T21:42:43.084Z,67.60
2023-04-08T21:45:10.505Z,67.70
2023-04-08T21:47:37.282Z,67.80
2023-04-08T21:50:04.407Z,67.80
2023-04-08T21:52:31.546Z,67.90
2023-04-08T21:54:58.261Z,67.80
2023-04-08T21:57:24.956Z,67.80
2023-04-08T21:59:52.355Z,67.90
2023-04-08T22:02:19.244Z,68.00
2023-04-08T22:04:46.153Z,68.00
2023-04-08T22:07:15.772Z,68.00
2023-04-08T22:09:42.491Z,68.10
2023-04-08T22:12:10.001Z,68.30
2023-04-08T22:14:45.663Z,68.20
2023-04-08T22:17:12.622Z,68.30
2023-04-08T22:19:39.544Z,68.30
2023-04-08T22:22:06.940Z,68.40
2023-04-08T22:24:33.751Z,68.60
2023-04-08T22:27:01.106Z,68.60
2023-04-08T22:29:27.864Z,68.60
2023-04-08T22:31:54.612Z,68.60
2023-04-08T22:34:21.397Z,68.70
2023-04-08T22:36:51.613Z,68.80
2023-04-08T22:39:21.502Z,68.90
2023-04-08T22:41:48.305Z,68.90
2023-04-08T22:44:15.759Z,68.90
2023-04-08T22:46:42.523Z,68.90
2023-04-08T22:49:09.309Z,69.00
2023-04-08T22:51:36.253Z,68.90
2023-04-08T22:54:03.071Z,68.90
2023-04-08T22:56:30.787Z,68.90
2023-04-08T22:58:57.604Z,69.00
2023-04-08T23:01:27.336Z,69.00
2023-04-08T23:03:54.115Z,69.10
2023-04-08T23:06:20.920Z,69.10
2023-04-08T23:08:47.621Z,69.10
2023-04-08T23:11:14.501Z,69.10
2023-04-08T23:13:41.530Z,69.20
2023-04-08T23:16:09.851Z,69.20
2023-04-08T23:18:36.677Z,69.20
2023-04-08T23:21:03.937Z,69.30
2023-04-08T23:23:32.796Z,69.30
2023-04-08T23:25:59.501Z,69.40
2023-04-08T23:28:26.451Z,69.40
2023-04-08T23:30:58.358Z,69.50
2023-04-08T23:33:25.314Z,69.50
2023-04-08T23:35:52.047Z,69.60
2023-04-08T23:38:18.790Z,69.60
2023-04-08T23:40:45.647Z,69.60
2023-04-08T23:43:12.368Z,69.60
2023-04-08T23:45:39.205Z,69.60
2023-04-08T23:48:10.313Z,69.70
2023-04-08T23:50:37.344Z,69.80
2023-04-08T23:53:04.061Z,69.80
2023-04-08T23:55:30.762Z,70.70
2023-04-08T23:57:57.490Z,69.90
